sensor_id;sensor_type;location;lat;lon;timestamp;temperature;humidity
2767;DHT22;1391;46.74287300;11.63683300;2023-05-27T11:05:28;27.20;5.10
2767;DHT22;1391;46.74287300;11.63683300;2023-05-27T11:07:59;25.80;3.90
2767;DHT22;1391;46.74287300;11.63683300;2023-05-27T11:10:29;26.30;7.30
2767;DHT22;1391;46.74287300;11.63683300;2023-05-27T11:12:56;26.40;2.90
2767;DHT22;1391;46.74287300;11.63683300;2023-05-27T11:15:23;25.50;1.00
2767;DHT22;1391;46.74287300;11.63683300;2023-05-27T11:17:52;25.60;2.00
2767;DHT22;1391;46.74287300;11.63683300;2023-05-27T11:20:19;25.30;2.60
2767;DHT22;1391;46.74287300;11.63683300;2023-05-27T11:22:51;25.40;4.20
2767;DHT22;1391;46.74287300;11.63683300;2023-05-27T11:25:18;25.50;4.30
2767;DHT22;1391;46.74287300;11.63683300;2023-05-27T11:27:46;25.40;2.00
2767;DHT22;1391;46.74287300;11.63683300;2023-05-27T11:30:16;26.30;2.40
2767;DHT22;1391;46.74287300;11.63683300;2023-05-27T11:32:44;26.60;3.10
2767;DHT22;1391;46.74287300;11.63683300;2023-05-27T11:35:14;26.30;2.40
2767;DHT22;1391;46.74287300;11.63683300;2023-05-27T11:37:45;26.50;8.60
2767;DHT22;1391;46.74287300;11.63683300;2023-05-27T11:40:15;26.60;5.10
2767;DHT22;1391;46.74287300;11.63683300;2023-05-27T11:42:46;26.70;4.00
2767;DHT22;1391;46.74287300;11.63683300;2023-05-27T11:45:17;26.60;1.00
2767;DHT22;1391;46.74287300;11.63683300;2023-05-27T11:47:46;26.50;2.90
2767;DHT22;1391;46.74287300;11.63683300;2023-05-27T11:50:18;27.20;1.00
2767;DHT22;1391;46.74287300;11.63683300;2023-05-27T11:52:53;26.30;1.00
2767;DHT22;1391;46.74287300;11.63683300;2023-05-27T11:55:22;25.60;5.10
2767;DHT22;1391;46.74287300;11.63683300;2023-05-27T11:57:49;25.60;5.10
2767;DHT22;1391;46.74287300;11.63683300;2023-05-27T12:00:17;26.30;5.80
2767;DHT22;1391;46.74287300;11.63683300;2023-05-27T12:02:45;26.30;4.20
2767;DHT22;1391;46.74287300;11.63683300;2023-05-27T12:05:12;25.40;7.20
2767;DHT22;1391;46.74287300;11.63683300;2023-05-27T12:07:42;25.30;3.60
2767;DHT22;1391;46.74287300;11.63683300;2023-05-27T12:10:10;25.30;3.90
2767;DHT22;1391;46.74287300;11.63683300;2023-05-27T12:12:38;26.50;11.90
2767;DHT22;1391;46.74287300;11.63683300;2023-05-27T12:15:07;26.60;2.50
2767;DHT22;1391;46.74287300;11.63683300;2023-05-27T12:17:35;26.60;1.00
2767;DHT22;1391;46.74287300;11.63683300;2023-05-27T12:20:03;26.60;2.80
2767;DHT22;1391;46.74287300;11.63683300;2023-05-27T12:22:31;26.40;2.80
2767;DHT22;1391;46.74287300;11.63683300;2023-05-27T12:24:59;26.80;2.10
2767;DHT22;1391;46.74287300;11.63683300;2023-05-27T12:27:26;26.70;4.70
2767;DHT22;1391;46.74287300;11.63683300;2023-05-27T12:29:55;26.50;1.30
2767;DHT22;1391;46.74287300;11.63683300;2023-05-27T12:32:23;25.60;1.00
2767;DHT22;1391;46.74287300;11.63683300;2023-05-27T12:34:50;25.50;6.10
2767;DHT22;1391;46.74287300;11.63683300;2023-05-27T12:37:17;24.70;7.00
2767;DHT22;1391;46.74287300;11.63683300;2023-05-27T12:39:44;24.70;7.60
2767;DHT22;1391;46.74287300;11.63683300;2023-05-27T12:42:12;24.70;7.90
2767;DHT22;1391;46.74287300;11.63683300;2023-05-27T12:44:40;25.40;11.40
2767;DHT22;1391;46.74287300;11.63683300;2023-05-27T12:47:09;25.10;10.90
2767;DHT22;1391;46.74287300;11.63683300;2023-05-27T12:49:37;25.40;12.70
2767;DHT22;1391;46.74287300;11.63683300;2023-05-27T12:52:04;25.30;7.00
2767;DHT22;1391;46.74287300;11.63683300;2023-05-27T12:54:31;25.10;12.20
2767;DHT22;1391;46.74287300;11.63683300;2023-05-27T12:57:00;24.40;7.80
2767;DHT22;1391;46.74287300;11.63683300;2023-05-27T12:59:30;24.70;7.40
2767;DHT22;1391;46.74287300;11.63683300;2023-05-27T13:01:58;24.50;8.40
2767;DHT22;1391;46.74287300;11.63683300;2023-05-27T13:04:27;24.50;6.40
2767;DHT22;1391;46.74287300;11.63683300;2023-05-27T13:06:54;24.70;7.60
2767;DHT22;1391;46.74287300;11.63683300;2023-05-27T13:09:21;24.50;6.50
2767;DHT22;1391;46.74287300;11.63683300;2023-05-27T13:11:48;24.90;12.00
2767;DHT22;1391;46.74287300;11.63683300;2023-05-27T13:14:16;25.10;9.10
2767;DHT22;1391;46.74287300;11.63683300;2023-05-27T13:16:43;25.30;10.40
2767;DHT22;1391;46.74287300;11.63683300;2023-05-27T13:19:10;25.40;5.40
2767;DHT22;1391;46.74287300;11.63683300;2023-05-27T13:21:40;25.50;9.10
2767;DHT22;1391;46.74287300;11.63683300;2023-05-27T13:24:08;26.20;4.70
2767;DHT22;1391;46.74287300;11.63683300;2023-05-27T13:26:35;26.50;7.70
2767;DHT22;1391;46.74287300;11.63683300;2023-05-27T13:29:02;26.40;8.60
2767;DHT22;1391;46.74287300;11.63683300;2023-05-27T13:31:29;26.50;14.80
2767;DHT22;1391;46.74287300;11.63683300;2023-05-27T13:33:57;26.40;1.00
2767;DHT22;1391;46.74287300;11.63683300;2023-05-27T13:36:24;26.40;4.20
2767;DHT22;1391;46.74287300;11.63683300;2023-05-27T13:38:53;25.60;3.60
2767;DHT22;1391;46.74287300;11.63683300;2023-05-27T13:41:20;25.40;1.00
2767;DHT22;1391;46.74287300;11.63683300;2023-05-27T13:43:48;26.30;3.80
2767;DHT22;1391;46.74287300;11.63683300;2023-05-27T13:46:15;26.40;1.80
2767;DHT22;1391;46.74287300;11.63683300;2023-05-27T13:48:42;26.20;1.00
2767;DHT22;1391;46.74287300;11.63683300;2023-05-27T13:51:10;26.40;1.00
2767;DHT22;1391;46.74287300;11.63683300;2023-05-27T13:53:37;26.20;5.20
2767;DHT22;1391;46.74287300;11.63683300;2023-05-27T13:56:06;26.30;4.80
2767;DHT22;1391;46.74287300;11.63683300;2023-05-27T13:58:34;25.60;5.20
2767;DHT22;1391;46.74287300;11.63683300;2023-05-27T14:01:01;25.70;2.30
2767;DHT22;1391;46.74287300;11.63683300;2023-05-27T14:03:28;25.60;4.20
2767;DHT22;1391;46.74287300;11.63683300;2023-05-27T14:05:55;26.40;2.40
2767;DHT22;1391;46.74287300;11.63683300;2023-05-27T14:08:23;26.30;1.00
2767;DHT22;1391;46.74287300;11.63683300;2023-05-27T14:10:50;26.20;5.00
2767;DHT22;1391;46.74287300;11.63683300;2023-05-27T14:13:19;25.50;6.10
2767;DHT22;1391;46.74287300;11.63683300;2023-05-27T14:15:46;26.30;4.50
2767;DHT22;1391;46.74287300;11.63683300;2023-05-27T14:18:13;26.20;2.90
2767;DHT22;1391;46.74287300;11.63683300;2023-05-27T14:20:40;25.60;2.40
2767;DHT22;1391;46.74287300;11.63683300;2023-05-27T14:23:08;26.40;3.20
2767;DHT22;1391;46.74287300;11.63683300;2023-05-27T14:25:36;26.30;7.20
2767;DHT22;1391;46.74287300;11.63683300;2023-05-27T14:28:04;25.70;4.60
2767;DHT22;1391;46.74287300;11.63683300;2023-05-27T14:30:33;25.60;5.60
2767;DHT22;1391;46.74287300;11.63683300;2023-05-27T14:33:02;26.00;1.00
2767;DHT22;1391;46.74287300;11.63683300;2023-05-27T14:35:32;26.10;3.30
2767;DHT22;1391;46.74287300;11.63683300;2023-05-27T14:38:00;25.60;1.00
2767;DHT22;1391;46.74287300;11.63683300;2023-05-27T14:40:28;25.40;1.00
2767;DHT22;1391;46.74287300;11.63683300;2023-05-27T14:42:55;25.40;2.20
2767;DHT22;1391;46.74287300;11.63683300;2023-05-27T14:45:22;25.30;3.70
2767;DHT22;1391;46.74287300;11.63683300;2023-05-27T14:47:51;25.20;1.20
2767;DHT22;1391;46.74287300;11.63683300;2023-05-27T14:50:22;25.10;2.80
2767;DHT22;1391;46.74287300;11.63683300;2023-05-27T14:52:50;25.10;1.60
2767;DHT22;1391;46.74287300;11.63683300;2023-05-27T14:55:18;25.20;3.90
2767;DHT22;1391;46.74287300;11.63683300;2023-05-27T14:57:47;25.10;1.90
2767;DHT22;1391;46.74287300;11.63683300;2023-05-27T15:00:14;25.10;2.10
2767;DHT22;1391;46.74287300;11.63683300;2023-05-27T15:02:42;24.40;3.80
2767;DHT22;1391;46.74287300;11.63683300;2023-05-27T15:05:11;24.50;3.20
2767;DHT22;1391;46.74287300;11.63683300;2023-05-27T15:07:41;24.60;3.80
2767;DHT22;1391;46.74287300;11.63683300;2023-05-27T15:10:09;24.60;5.00
2767;DHT22;1391;46.74287300;11.63683300;2023-05-27T15:12:41;24.40;4.20
2767;DHT22;1391;46.74287300;11.63683300;2023-05-27T15:15:11;24.60;7.90
2767;DHT22;1391;46.74287300;11.63683300;2023-05-27T15:17:41;24.50;6.00
2767;DHT22;1391;46.74287300;11.63683300;2023-05-27T15:20:12;24.40;9.20
2767;DHT22;1391;46.74287300;11.63683300;2023-05-27T15:22:40;24.30;9.00
2767;DHT22;1391;46.74287300;11.63683300;2023-05-27T15:25:08;24.30;8.10
2767;DHT22;1391;46.74287300;11.63683300;2023-05-27T15:27:36;24.30;13.00
2767;DHT22;1391;46.74287300;11.63683300;2023-05-27T15:30:04;24.20;15.10
2767;DHT22;1391;46.74287300;11.63683300;2023-05-27T15:32:33;24.40;18.60
2767;DHT22;1391;46.74287300;11.63683300;2023-05-27T15:35:00;24.30;19.50
2767;DHT22;1391;46.74287300;11.63683300;2023-05-27T15:37:30;24.20;19.90
2767;DHT22;1391;46.74287300;11.63683300;2023-05-27T15:39:57;24.30;18.90
2767;DHT22;1391;46.74287300;11.63683300;2023-05-27T15:42:25;24.20;16.90
2767;DHT22;1391;46.74287300;11.63683300;2023-05-27T15:44:53;24.00;16.10
2767;DHT22;1391;46.74287300;11.63683300;2023-05-27T15:47:20;24.20;15.80
2767;DHT22;1391;46.74287300;11.63683300;2023-05-27T15:49:47;24.20;18.00
2767;DHT22;1391;46.74287300;11.63683300;2023-05-27T15:52:15;24.10;17.60
2767;DHT22;1391;46.74287300;11.63683300;2023-05-27T15:54:44;24.30;17.20
2767;DHT22;1391;46.74287300;11.63683300;2023-05-27T15:57:12;24.10;18.30
2767;DHT22;1391;46.74287300;11.63683300;2023-05-27T15:59:40;23.50;21.50
2767;DHT22;1391;46.74287300;11.63683300;2023-05-27T16:02:09;23.50;24.60
2767;DHT22;1391;46.74287300;11.63683300;2023-05-27T16:04:36;23.60;22.50
2767;DHT22;1391;46.74287300;11.63683300;2023-05-27T16:07:04;23.40;28.00
2767;DHT22;1391;46.74287300;11.63683300;2023-05-27T16:09:32;23.40;25.70
2767;DHT22;1391;46.74287300;11.63683300;2023-05-27T16:12:00;23.50;25.10
2767;DHT22;1391;46.74287300;11.63683300;2023-05-27T16:14:28;23.50;23.50
2767;DHT22;1391;46.74287300;11.63683300;2023-05-27T16:16:55;23.40;25.30
2767;DHT22;1391;46.74287300;11.63683300;2023-05-27T16:19:23;23.40;26.30
2767;DHT22;1391;46.74287300;11.63683300;2023-05-27T16:21:50;23.40;33.70
2767;DHT22;1391;46.74287300;11.63683300;2023-05-27T16:24:17;23.40;28.90
2767;DHT22;1391;46.74287300;11.63683300;2023-05-27T16:26:45;23.30;25.60
2767;DHT22;1391;46.74287300;11.63683300;2023-05-27T16:29:14;22.80;25.70
2767;DHT22;1391;46.74287300;11.63683300;2023-05-27T16:31:41;22.70;25.20
2767;DHT22;1391;46.74287300;11.63683300;2023-05-27T16:34:09;23.40;24.80
2767;DHT22;1391;46.74287300;11.63683300;2023-05-27T16:36:36;23.30;25.50
2767;DHT22;1391;46.74287300;11.63683300;2023-05-27T16:39:03;23.30;26.30
2767;DHT22;1391;46.74287300;11.63683300;2023-05-27T16:41:34;23.30;24.00
2767;DHT22;1391;46.74287300;11.63683300;2023-05-27T16:44:01;22.80;24.70
2767;DHT22;1391;46.74287300;11.63683300;2023-05-27T16:46:30;22.60;26.50
2767;DHT22;1391;46.74287300;11.63683300;2023-05-27T16:48:58;22.60;25.40
2767;DHT22;1391;46.74287300;11.63683300;2023-05-27T16:51:26;22.80;23.90
2767;DHT22;1391;46.74287300;11.63683300;2023-05-27T16:53:53;22.70;24.30
2767;DHT22;1391;46.74287300;11.63683300;2023-05-27T16:56:20;22.80;23.10
2767;DHT22;1391;46.74287300;11.63683300;2023-05-27T16:58:48;22.70;24.00
2767;DHT22;1391;46.74287300;11.63683300;2023-05-27T17:01:20;22.80;24.50
2767;DHT22;1391;46.74287300;11.63683300;2023-05-27T17:03:49;22.80;25.30
2767;DHT22;1391;46.74287300;11.63683300;2023-05-27T17:06:18;22.70;29.10
2767;DHT22;1391;46.74287300;11.63683300;2023-05-27T17:08:45;22.60;28.40
2767;DHT22;1391;46.74287300;11.63683300;2023-05-27T17:11:13;22.60;26.50
2767;DHT22;1391;46.74287300;11.63683300;2023-05-27T17:13:41;22.60;30.00
2767;DHT22;1391;46.74287300;11.63683300;2023-05-27T17:16:09;22.50;32.60
2767;DHT22;1391;46.74287300;11.63683300;2023-05-27T17:18:39;22.10;29.40
2767;DHT22;1391;46.74287300;11.63683300;2023-05-27T17:21:07;22.10;29.10
2767;DHT22;1391;46.74287300;11.63683300;2023-05-27T17:23:35;22.10;27.90
2767;DHT22;1391;46.74287300;11.63683300;2023-05-27T17:26:05;22.10;27.60
2767;DHT22;1391;46.74287300;11.63683300;2023-05-27T17:28:33;21.80;27.80
2767;DHT22;1391;46.74287300;11.63683300;2023-05-27T17:31:01;21.90;26.40
2767;DHT22;1391;46.74287300;11.63683300;2023-05-27T17:33:28;22.10;27.50
2767;DHT22;1391;46.74287300;11.63683300;2023-05-27T17:35:56;22.10;27.10
2767;DHT22;1391;46.74287300;11.63683300;2023-05-27T17:38:24;22.00;28.40
2767;DHT22;1391;46.74287300;11.63683300;2023-05-27T17:40:54;22.10;27.30
2767;DHT22;1391;46.74287300;11.63683300;2023-05-27T17:43:21;22.10;26.70
2767;DHT22;1391;46.74287300;11.63683300;2023-05-27T17:45:49;21.80;26.60
2767;DHT22;1391;46.74287300;11.63683300;2023-05-27T17:48:17;22.00;26.90
2767;DHT22;1391;46.74287300;11.63683300;2023-05-27T17:50:45;21.90;27.00
2767;DHT22;1391;46.74287300;11.63683300;2023-05-27T17:53:12;21.80;26.60
2767;DHT22;1391;46.74287300;11.63683300;2023-05-27T17:55:41;22.00;27.50
2767;DHT22;1391;46.74287300;11.63683300;2023-05-27T17:58:08;22.00;28.10
2767;DHT22;1391;46.74287300;11.63683300;2023-05-27T18:00:37;21.70;27.20
2767;DHT22;1391;46.74287300;11.63683300;2023-05-27T18:03:04;21.60;28.60
2767;DHT22;1391;46.74287300;11.63683300;2023-05-27T18:05:33;21.60;27.90
2767;DHT22;1391;46.74287300;11.63683300;2023-05-27T18:08:01;21.20;28.10
2767;DHT22;1391;46.74287300;11.63683300;2023-05-27T18:10:31;21.90;28.30
2767;DHT22;1391;46.74287300;11.63683300;2023-05-27T18:13:00;21.90;28.60
2767;DHT22;1391;46.74287300;11.63683300;2023-05-27T18:15:28;21.10;27.50
2767;DHT22;1391;46.74287300;11.63683300;2023-05-27T18:17:56;21.60;27.60
2767;DHT22;1391;46.74287300;11.63683300;2023-05-27T18:20:23;21.10;27.70
2767;DHT22;1391;46.74287300;11.63683300;2023-05-27T18:22:51;21.90;28.20
2767;DHT22;1391;46.74287300;11.63683300;2023-05-27T18:25:18;21.40;28.30
2767;DHT22;1391;46.74287300;11.63683300;2023-05-27T18:27:45;21.30;28.60
2767;DHT22;1391;46.74287300;11.63683300;2023-05-27T18:30:15;21.30;28.80
2767;DHT22;1391;46.74287300;11.63683300;2023-05-27T18:32:44;21.00;28.80
2767;DHT22;1391;46.74287300;11.63683300;2023-05-27T18:35:17;21.00;29.50
2767;DHT22;1391;46.74287300;11.63683300;2023-05-27T18:37:45;21.30;30.20
2767;DHT22;1391;46.74287300;11.63683300;2023-05-27T18:40:12;21.20;30.20
2767;DHT22;1391;46.74287300;11.63683300;2023-05-27T18:42:39;21.20;30.60
2767;DHT22;1391;46.74287300;11.63683300;2023-05-27T18:45:07;21.00;31.10
2767;DHT22;1391;46.74287300;11.63683300;2023-05-27T18:47:36;21.10;30.30
2767;DHT22;1391;46.74287300;11.63683300;2023-05-27T18:50:04;21.00;29.70
2767;DHT22;1391;46.74287300;11.63683300;2023-05-27T18:52:32;20.90;30.50
2767;DHT22;1391;46.74287300;11.63683300;2023-05-27T18:55:00;20.40;31.50
2767;DHT22;1391;46.74287300;11.63683300;2023-05-27T18:57:28;20.60;32.90
2767;DHT22;1391;46.74287300;11.63683300;2023-05-27T18:59:55;20.30;31.90
2767;DHT22;1391;46.74287300;11.63683300;2023-05-27T19:02:26;19.90;39.80
2767;DHT22;1391;46.74287300;11.63683300;2023-05-27T19:04:54;19.80;35.70
2767;DHT22;1391;46.74287300;11.63683300;2023-05-27T19:07:22;20.30;33.80
2767;DHT22;1391;46.74287300;11.63683300;2023-05-27T19:09:49;19.80;40.20
2767;DHT22;1391;46.74287300;11.63683300;2023-05-27T19:12:19;19.90;44.50
2767;DHT22;1391;46.74287300;11.63683300;2023-05-27T19:14:47;20.00;40.00
2767;DHT22;1391;46.74287300;11.63683300;2023-05-27T19:17:14;19.90;43.30
2767;DHT22;1391;46.74287300;11.63683300;2023-05-27T19:19:41;19.90;42.60
2767;DHT22;1391;46.74287300;11.63683300;2023-05-27T19:22:12;20.10;41.00
2767;DHT22;1391;46.74287300;11.63683300;2023-05-27T19:24:39;19.40;40.60
2767;DHT22;1391;46.74287300;11.63683300;2023-05-27T19:27:06;19.30;38.80
2767;DHT22;1391;46.74287300;11.63683300;2023-05-27T19:29:33;20.10;37.90
2767;DHT22;1391;46.74287300;11.63683300;2023-05-27T19:32:01;20.10;39.80
2767;DHT22;1391;46.74287300;11.63683300;2023-05-27T19:34:29;19.40;36.50
2767;DHT22;1391;46.74287300;11.63683300;2023-05-27T19:36:56;19.80;36.80
2767;DHT22;1391;46.74287300;11.63683300;2023-05-27T19:39:25;19.80;35.80
2767;DHT22;1391;46.74287300;11.63683300;2023-05-27T19:41:52;19.80;36.70
2767;DHT22;1391;46.74287300;11.63683300;2023-05-27T19:44:20;19.40;43.50
2767;DHT22;1391;46.74287300;11.63683300;2023-05-27T19:46:47;19.60;42.20
2767;DHT22;1391;46.74287300;11.63683300;2023-05-27T19:49:16;19.30;40.40
2767;DHT22;1391;46.74287300;11.63683300;2023-05-27T19:51:43;19.40;39.40
2767;DHT22;1391;46.74287300;11.63683300;2023-05-27T19:54:11;19.50;32.80
2767;DHT22;1391;46.74287300;11.63683300;2023-05-27T19:56:40;19.70;32.10
2767;DHT22;1391;46.74287300;11.63683300;2023-05-27T19:59:08;19.30;29.60
2767;DHT22;1391;46.74287300;11.63683300;2023-05-27T20:01:38;19.10;30.60
2767;DHT22;1391;46.74287300;11.63683300;2023-05-27T20:04:07;19.10;31.10
2767;DHT22;1391;46.74287300;11.63683300;2023-05-27T20:06:34;18.70;30.60
2767;DHT22;1391;46.74287300;11.63683300;2023-05-27T20:09:02;19.10;29.70
2767;DHT22;1391;46.74287300;11.63683300;2023-05-27T20:11:30;19.10;30.00
2767;DHT22;1391;46.74287300;11.63683300;2023-05-27T20:13:58;19.10;29.60
2767;DHT22;1391;46.74287300;11.63683300;2023-05-27T20:16:26;18.50;30.10
2767;DHT22;1391;46.74287300;11.63683300;2023-05-27T20:18:53;18.60;30.50
2767;DHT22;1391;46.74287300;11.63683300;2023-05-27T20:21:20;18.50;31.60
2767;DHT22;1391;46.74287300;11.63683300;2023-05-27T20:23:50;18.60;30.50
2767;DHT22;1391;46.74287300;11.63683300;2023-05-27T20:26:17;18.40;30.90
2767;DHT22;1391;46.74287300;11.63683300;2023-05-27T20:28:46;18.50;32.10
2767;DHT22;1391;46.74287300;11.63683300;2023-05-27T20:31:17;18.40;33.00
2767;DHT22;1391;46.74287300;11.63683300;2023-05-27T20:33:45;18.40;32.90
2767;DHT22;1391;46.74287300;11.63683300;2023-05-27T20:36:12;18.40;33.60
2767;DHT22;1391;46.74287300;11.63683300;2023-05-27T20:38:40;18.00;33.90
2767;DHT22;1391;46.74287300;11.63683300;2023-05-27T20:41:07;18.00;35.30
2767;DHT22;1391;46.74287300;11.63683300;2023-05-27T20:43:35;18.10;37.30
2767;DHT22;1391;46.74287300;11.63683300;2023-05-27T20:46:03;17.90;37.60
2767;DHT22;1391;46.74287300;11.63683300;2023-05-27T20:48:33;18.20;39.70
2767;DHT22;1391;46.74287300;11.63683300;2023-05-27T20:51:00;18.10;41.90
2767;DHT22;1391;46.74287300;11.63683300;2023-05-27T20:53:27;18.10;41.20
2767;DHT22;1391;46.74287300;11.63683300;2023-05-27T20:55:54;18.20;40.00
2767;DHT22;1391;46.74287300;11.63683300;2023-05-27T20:58:22;18.10;40.00
2767;DHT22;1391;46.74287300;11.63683300;2023-05-27T21:00:50;18.00;40.50
2767;DHT22;1391;46.74287300;11.63683300;2023-05-27T21:03:17;18.30;41.60
2767;DHT22;1391;46.74287300;11.63683300;2023-05-27T21:05:46;18.00;36.90
2767;DHT22;1391;46.74287300;11.63683300;2023-05-27T21:08:14;17.90;39.10
2767;DHT22;1391;46.74287300;11.63683300;2023-05-27T21:10:46;18.10;34.40
2767;DHT22;1391;46.74287300;11.63683300;2023-05-27T21:13:14;17.50;36.60
2767;DHT22;1391;46.74287300;11.63683300;2023-05-27T21:15:41;17.60;41.60
2767;DHT22;1391;46.74287300;11.63683300;2023-05-27T21:18:10;17.40;35.80
2767;DHT22;1391;46.74287300;11.63683300;2023-05-27T21:20:38;17.50;36.90
2767;DHT22;1391;46.74287300;11.63683300;2023-05-27T21:23:06;17.50;38.90
2767;DHT22;1391;46.74287300;11.63683300;2023-05-27T21:25:34;17.40;39.00
2767;DHT22;1391;46.74287300;11.63683300;2023-05-27T21:28:01;16.90;40.90
2767;DHT22;1391;46.74287300;11.63683300;2023-05-27T21:30:28;16.90;42.80
2767;DHT22;1391;46.74287300;11.63683300;2023-05-27T21:32:55;16.50;40.50
2767;DHT22;1391;46.74287300;11.63683300;2023-05-27T21:35:24;16.90;42.50
2767;DHT22;1391;46.74287300;11.63683300;2023-05-27T21:37:52;16.40;44.80
2767;DHT22;1391;46.74287300;11.63683300;2023-05-27T21:40:21;16.40;61.50
2767;DHT22;1391;46.74287300;11.63683300;2023-05-27T21:42:48;16.70;56.40
2767;DHT22;1391;46.74287300;11.63683300;2023-05-27T21:45:16;16.50;67.50
2767;DHT22;1391;46.74287300;11.63683300;2023-05-27T21:47:44;16.30;72.90
2767;DHT22;1391;46.74287300;11.63683300;2023-05-27T21:50:11;16.00;65.50
2767;DHT22;1391;46.74287300;11.63683300;2023-05-27T21:52:42;16.00;65.70
2767;DHT22;1391;46.74287300;11.63683300;2023-05-27T21:55:09;15.90;65.90
2767;DHT22;1391;46.74287300;11.63683300;2023-05-27T21:57:37;15.70;66.30
2767;DHT22;1391;46.74287300;11.63683300;2023-05-27T22:00:07;15.80;62.10
2767;DHT22;1391;46.74287300;11.63683300;2023-05-27T22:02:41;15.80;65.40
2767;DHT22;1391;46.74287300;11.63683300;2023-05-27T22:05:09;15.70;72.00
2767;DHT22;1391;46.74287300;11.63683300;2023-05-27T22:07:36;15.50;74.60
2767;DHT22;1391;46.74287300;11.63683300;2023-05-27T22:10:04;15.50;77.30
2767;DHT22;1391;46.74287300;11.63683300;2023-05-27T22:12:32;15.40;80.50
2767;DHT22;1391;46.74287300;11.63683300;2023-05-27T22:15:01;15.30;83.70
2767;DHT22;1391;46.74287300;11.63683300;2023-05-27T22:17:28;14.90;90.30
2767;DHT22;1391;46.74287300;11.63683300;2023-05-27T22:19:56;14.60;91.90
2767;DHT22;1391;46.74287300;11.63683300;2023-05-27T22:22:23;14.90;93.50
2767;DHT22;1391;46.74287300;11.63683300;2023-05-27T22:24:50;14.50;94.70
2767;DHT22;1391;46.74287300;11.63683300;2023-05-27T22:27:18;14.60;96.80
2767;DHT22;1391;46.74287300;11.63683300;2023-05-27T22:29:45;14.80;98.10
2767;DHT22;1391;46.74287300;11.63683300;2023-05-27T22:32:14;15.20;99.90
2767;DHT22;1391;46.74287300;11.63683300;2023-05-27T22:34:41;15.30;99.90
2767;DHT22;1391;46.74287300;11.63683300;2023-05-27T22:37:08;15.10;99.90
2767;DHT22;1391;46.74287300;11.63683300;2023-05-27T22:39:35;15.40;99.90
2767;DHT22;1391;46.74287300;11.63683300;2023-05-27T22:42:03;15.10;99.90
2767;DHT22;1391;46.74287300;11.63683300;2023-05-27T22:44:31;15.00;99.90
2767;DHT22;1391;46.74287300;11.63683300;2023-05-27T22:46:58;15.20;99.90
2767;DHT22;1391;46.74287300;11.63683300;2023-05-27T22:49:27;14.60;99.90
2767;DHT22;1391;46.74287300;11.63683300;2023-05-27T22:51:55;15.30;99.90
2767;DHT22;1391;46.74287300;11.63683300;2023-05-27T22:54:22;14.70;99.90
2767;DHT22;1391;46.74287300;11.63683300;2023-05-27T22:56:49;14.90;99.90
2767;DHT22;1391;46.74287300;11.63683300;2023-05-27T22:59:16;14.90;99.90
2767;DHT22;1391;46.74287300;11.63683300;2023-05-27T23:01:44;15.30;99.90
2767;DHT22;1391;46.74287300;11.63683300;2023-05-27T23:04:11;14.70;99.90
2767;DHT22;1391;46.74287300;11.63683300;2023-05-27T23:06:41;14.50;99.90
2767;DHT22;1391;46.74287300;11.63683300;2023-05-27T23:09:08;14.50;99.90
2767;DHT22;1391;46.74287300;11.63683300;2023-05-27T23:11:35;15.00;99.90
2767;DHT22;1391;46.74287300;11.63683300;2023-05-27T23:14:02;14.50;99.90
2767;DHT22;1391;46.74287300;11.63683300;2023-05-27T23:16:29;14.50;99.90
2767;DHT22;1391;46.74287300;11.63683300;2023-05-27T23:18:56;14.90;99.90
2767;DHT22;1391;46.74287300;11.63683300;2023-05-27T23:21:24;14.40;99.90
2767;DHT22;1391;46.74287300;11.63683300;2023-05-27T23:23:53;14.80;99.90
2767;DHT22;1391;46.74287300;11.63683300;2023-05-27T23:26:20;14.70;99.90
2767;DHT22;1391;46.74287300;11.63683300;2023-05-27T23:28:47;14.50;99.90
2767;DHT22;1391;46.74287300;11.63683300;2023-05-27T23:31:14;14.80;99.90
2767;DHT22;1391;46.74287300;11.63683300;2023-05-27T23:33:42;14.70;99.90
2767;DHT22;1391;46.74287300;11.63683300;2023-05-27T23:36:09;14.60;99.90
2767;DHT22;1391;46.74287300;11.63683300;2023-05-27T23:38:36;14.40;99.90
2767;DHT22;1391;46.74287300;11.63683300;2023-05-27T23:41:05;14.40;99.90
2767;DHT22;1391;46.74287300;11.63683300;2023-05-27T23:43:32;14.40;99.90
2767;DHT22;1391;46.74287300;11.63683300;2023-05-27T23:45:59;14.50;99.90
2767;DHT22;1391;46.74287300;11.63683300;2023-05-27T23:48:26;14.30;99.90
2767;DHT22;1391;46.74287300;11.63683300;2023-05-27T23:50:53;14.30;99.90
2767;DHT22;1391;46.74287300;11.63683300;2023-05-27T23:53:20;14.30;99.90
2767;DHT22;1391;46.74287300;11.63683300;2023-05-27T23:55:47;14.70;99.90
2767;DHT22;1391;46.74287300;11.63683300;2023-05-27T23:58:19;14.70;99.90
